Terminal Aerodrome Forecast
Issued by NWS Wilmington, OH

Current Version | Previous Version | Text Only | Print | Product List | Glossary Off
Versions: 1 2 3 4 5 6 7 8 9 10 11 12 13 14 15 16 17 18 19 20 21 22 23 24 25

893
FTUS41 KILN 100542
TAFCVG
TAF
KCVG 100542Z 1006/1112 27015KT P6SM BKN025
     FM100700 25007KT P6SM FEW035 SCT150
     FM101500 23012G20KT P6SM BKN100
     FM102200 23008KT P6SM SCT040
     FM110600 27004KT P6SM SCT200=

USA.gov is the U.S. government's official web portal to all federal, state and local government web resources and services.